Mesa Verde Natl Park, Colorado
Current Conditions -  °F | °C
As of 7:53 AM on Monday 24 Nov 2014 (Local Time) from KCEZ Reporting Station
Broken Clouds Broken Clouds  
Wind Chill: -12°   Ceiling: 9500
Heat Index: -8°   Visibility: 10mi
Dew Point: -10°   Wind: 6mph
Humidity: 84%   Direction: 80°E
Pressure: 30.19"   Gusts: NA
Location:  37.22°N, 108.5°W
Report Text: KCEZ 241453Z AUTO 08005KT 10SM SCT080 BKN095 M08/M10 A3019 RMK AO2 SLP252 T10781100 51015
Loading
Personal Weather Stations






























Interactive Weather Map New forecast layout! Learn more

10-Day Weather Forecast

Advertisements
Track Severe Weather on mobile